Aktualne dane pomiarowe

Uwaga, wersja testowa! Automatyczne pobieranie danych za pomocą narzędzi lub skryptów to umożliwiających jest zabronione.

Dane meteo z obszaru Polski uzyskane na podstawie depesz SYNOP pobieranych co godzinę z NWS. Najedź myszką na symbol przedstawiony w tabeli, aby uzyskać informacje co do jego znaczenia. Prosimy pamiętać, że to testowa wersja strony, która jeszcze nie jest ukończona. Stworzono również jest krótki FAQ dotyczący korzystania z tej podstrony Anomalie temperatury w chwili obecnej odniesione są do okresu referencyjnego 1951-2016. Okres ten będzie później zmieniony na 1981-2010. Kliknij ikonę aby pobrać plik CSV. Kliknij ikonę aby wygenerować mapę synoptyczną dla danego terminu.

Wybierz Datę:    

        

Lesko (12690)

Dane terminowe dla wybranej stacji. Kliknij datę, aby otrzymać dane z tego terminu dla wszystkich stacji.

TemperaturaZachmurzenieWiatrCiśnienieOpadyPogoda
 Data t td wb tx tn tg rh  Nt Nl Cl Cm Ch ws wd g1 g2 wx mslp ppp ch 24h 12h t ww ww w1 w2  
2019-06-30 23:00:00 23.2 14.2 17.5--- 5735.0wx-3wx-831016.1 967.9 -0.3---------
2019-06-30 22:00:00 23.9 14.3 17.8--- 5535.0wx-4wx--41016.0 967.9 -0.3---------
2019-06-30 21:00:00 24.3 14.1 17.8--- 5335.0wx-5wx101051016.2 968.1 -0.2---------
2019-06-30 20:00:00 24.1 14.2 17.8--- 5435.0wx-5wx---1016.3 968.2 -0.2---------
2019-06-30 19:00:00 24.2 14.6 18.1--- 5535.0wx-5wx--51016.3 968.2 -0.6---------
2019-06-30 18:00:00 25.3 14.1 18.2 28.4 19.0- 5035.0wx-5wx-1051016.2 968.3 -0.8- 0.012------
2019-06-30 17:00:00 26.3 14.7 18.9--- 4935.0wx-4wx--41016.1 968.4 -1.0---------
2019-06-30 16:00:00 27.3 14.3 19.1--- 4535.0wx-3wx8831016.4 968.8 -1.1---------
2019-06-30 15:00:00 27.8 14.4 19.4--- 4435.0wx-5wx--51016.6 969.1 -1.0---------
2019-06-30 14:00:00 28.4 15.0 19.9--- 4435.0wx-3wx--31016.9 969.4 -0.9---------
2019-06-30 13:00:00 27.7 12.9 18.6--- 4035.0wx-4wx--41017.5 969.9 -0.7---------
2019-06-30 12:00:00 27.3 12.1 18.1--- 3935.0wx-4wx--41017.8 970.1 -0.8- 0.06------
2019-06-30 11:00:00 26.9 12.5 18.1--- 4135.0wx-3wx--31018.0 970.3 -0.6---------
2019-06-30 10:00:00 26.1 11.8 17.5--- 4135.0wx-3wx--31018.5 970.6 -0.5---------
2019-06-30 09:00:00 25.3 13.5 17.9--- 4835.0wx-wx2wx--21018.9 970.9 0.1---------
2019-06-30 08:00:00 23.8 12.7 16.9--- 5035.0wxwxwx2wx--21019.2 970.9 0.3---------
2019-06-30 07:00:00 21.8 14.9 17.3--- 6535.0wxwxwx1wx--11019.7 971.1 0.7---------
2019-06-30 06:00:00 19.0 13.4 15.3 20.8 11.9 11 7035.0wx-1wx--11019.9 970.8 0.5- 0.012----- 10.4
2019-06-30 05:00:00 15.6 12.2 13.3--- 8035.0wx-1wx--11020.3 970.6 0.5---------
2019-06-30 04:00:00 13.1 11.2 11.8--- 8835.0wx-2wx---1020.5 970.4 0.1---------
2019-06-30 03:00:00 12.1 10.5 11.0--- 9035.0wx-3wx--31020.6 970.3 -0.2---------
2019-06-30 02:00:00 12.2 10.8 11.2--- 9135.0wx-2wx--21020.4 970.1 -0.3---------
2019-06-30 01:00:00 12.7 10.6 11.3--- 8735.0wx-2wx--21020.5 970.3 -0.1---------
2019-06-30 00:00:00 13.3 10.8 11.6--- 8535.0wx-2wx---1020.6 970.5 -0.1---------
2019-06-29 23:00:00 13.8 10.4 11.6--- 8035.0wx-2wx---1020.4 970.4 -0.2---------
2019-06-29 22:00:00 15.2 10.0 11.9--- 7135.0wx-1wx---1020.1 970.4 0.1---------
2019-06-29 21:00:00 16.5 9.4 12.2--- 6335.0wx-1wx---1020.1 970.6 0.6---------
2019-06-29 20:00:00 18.6 9.1 13.0--- 5435.0wx-wx1wx--11019.7 970.6 0.5---------
2019-06-29 19:00:00 19.3 9.2 13.4--- 5235.0wxwxwxwx2wx--21019.3 970.3 0.1---------
2019-06-29 18:00:00 20.8 8.8 13.9 22.7 13.9- 4635.0wxwxwxwx3wx-931018.7 970.0 -0.3- 0.012------
2019-06-29 17:00:00 22.3 8.8 14.5--- 4235.0wxwxwxwx3wx---1018.6 970.1 -0.4---------
2019-06-29 16:00:00 22.4 7.4 14.0--- 3835.0wxwxwxwx5wx---1018.7 970.2 -0.6---------
2019-06-29 15:00:00 22.4 8.1 14.3--- 4035.0wxwxwxwx4wx-941018.8 970.3 -1.1---------
2019-06-29 14:00:00 22.1 9.3 14.6--- 4435.0wxwxwxwx3wx---1019.0 970.5 -1.3---------
2019-06-29 13:00:00 20.7 8.3 13.6--- 4535.0wxwxwxwx5wx---1019.6 970.8 -1.2---------
2019-06-29 12:00:00 20.6 8.9 13.8--- 4735.0wxwxwxwx3wx-831020.2 971.4 -0.5- 0.06------
2019-06-29 11:00:00 19.4 7.8 12.8--- 4735.0wxwxwxwx4wx--41020.9 971.8 -0.4---------
2019-06-29 10:00:00 19.5 8.2 13.0--- 4835.0wxwxwx3wx8831021.1 972.0 -0.2---------
2019-06-29 09:00:00 18.5 8.2 12.6--- 5135.0wxwxwxwx3wx--31021.1 971.9 -0.4---------
2019-06-29 08:00:00 17.1 7.7 11.7--- 5435.0wxwxwxwx3wx--31021.7 972.2 -0.1---------
2019-06-29 07:00:00 15.3 7.3 10.7--- 5935.0wxwxwxwx4wx--41022.0 972.2 0.2---------
2019-06-29 06:00:00 13.9 8.1 10.4 17.9 10.4 9 6835.0wxwxwxwx3wx--31022.4 972.3 0.9- 0.012----- 8.0
2019-06-29 05:00:00 12.3 9.3 10.3--- 8235.0wx-wx2wx--21022.6 972.3 1.2---------
2019-06-29 04:00:00 10.8 8.9 9.5--- 8823.0wxwxwxwx1wx--11022.6 972.0 1.1---------
2019-06-29 03:00:00 11.0 9.4 9.9--- 9030.0wxwxwxwx1wx--11021.9 971.4 0.7---------
2019-06-29 02:00:00 11.0 9.3 9.8--- 8918.0wxwxwxwx0---01021.6 971.1 0.5---------
2019-06-29 01:00:00 10.5 8.8 9.3--- 8924.0wxwxwxwx1wx--11021.5 970.9 0.3---------
2019-06-29 00:00:00 11.3 9.4 10.0--- 8835.0wx-wx1wx--11021.1 970.7 0.3- 0.06------
11.7 ms

 

Print Friendly, PDF & Email